sensor_id;sensor_type;location;lat;lon;timestamp;temperature;humidity
38684;DHT22;24910;53.248;-6.134;2022-09-09T00:01:29;17.30;91.40
38684;DHT22;24910;53.248;-6.134;2022-09-09T00:04:03;17.30;91.50
38684;DHT22;24910;53.248;-6.134;2022-09-09T00:06:43;17.20;91.50
38684;DHT22;24910;53.248;-6.134;2022-09-09T00:09:17;17.20;91.50
38684;DHT22;24910;53.248;-6.134;2022-09-09T00:11:50;17.20;91.50
38684;DHT22;24910;53.248;-6.134;2022-09-09T00:14:26;17.20;91.60
38684;DHT22;24910;53.248;-6.134;2022-09-09T00:17:02;17.20;91.60
38684;DHT22;24910;53.248;-6.134;2022-09-09T00:19:39;17.30;91.70
38684;DHT22;24910;53.248;-6.134;2022-09-09T00:22:16;17.20;91.70
38684;DHT22;24910;53.248;-6.134;2022-09-09T00:24:49;17.20;91.70
38684;DHT22;24910;53.248;-6.134;2022-09-09T00:27:26;17.20;91.70
38684;DHT22;24910;53.248;-6.134;2022-09-09T00:30:00;17.20;91.70
38684;DHT22;24910;53.248;-6.134;2022-09-09T00:32:30;17.20;91.70
38684;DHT22;24910;53.248;-6.134;2022-09-09T00:35:11;17.20;91.80
38684;DHT22;24910;53.248;-6.134;2022-09-09T00:37:43;17.20;91.80
38684;DHT22;24910;53.248;-6.134;2022-09-09T00:40:23;17.20;91.80
38684;DHT22;24910;53.248;-6.134;2022-09-09T00:43:03;17.10;91.90
38684;DHT22;24910;53.248;-6.134;2022-09-09T00:45:57;17.10;91.90
38684;DHT22;24910;53.248;-6.134;2022-09-09T00:48:34;17.10;91.90
38684;DHT22;24910;53.248;-6.134;2022-09-09T00:51:15;17.10;91.90
38684;DHT22;24910;53.248;-6.134;2022-09-09T00:54:04;17.10;91.90
38684;DHT22;24910;53.248;-6.134;2022-09-09T00:56:37;17.10;92.00
38684;DHT22;24910;53.248;-6.134;2022-09-09T00:59:21;17.10;92.00
38684;DHT22;24910;53.248;-6.134;2022-09-09T01:01:55;17.10;92.00
38684;DHT22;24910;53.248;-6.134;2022-09-09T01:04:32;17.10;92.10
38684;DHT22;24910;53.248;-6.134;2022-09-09T01:07:09;17.00;92.10
38684;DHT22;24910;53.248;-6.134;2022-09-09T01:09:50;17.00;92.10
38684;DHT22;24910;53.248;-6.134;2022-09-09T01:12:29;17.00;92.20
38684;DHT22;24910;53.248;-6.134;2022-09-09T01:15:09;17.00;92.20
38684;DHT22;24910;53.248;-6.134;2022-09-09T01:17:56;17.00;92.20
38684;DHT22;24910;53.248;-6.134;2022-09-09T01:20:31;17.00;92.20
38684;DHT22;24910;53.248;-6.134;2022-09-09T01:23:16;17.00;92.20
38684;DHT22;24910;53.248;-6.134;2022-09-09T01:26:15;17.00;92.30
38684;DHT22;24910;53.248;-6.134;2022-09-09T01:28:47;17.00;92.30
38684;DHT22;24910;53.248;-6.134;2022-09-09T01:31:20;17.00;92.30
38684;DHT22;24910;53.248;-6.134;2022-09-09T01:33:50;17.00;92.30
38684;DHT22;24910;53.248;-6.134;2022-09-09T01:36:26;16.90;92.30
38684;DHT22;24910;53.248;-6.134;2022-09-09T01:38:57;16.90;92.40
38684;DHT22;24910;53.248;-6.134;2022-09-09T01:41:28;16.90;92.40
38684;DHT22;24910;53.248;-6.134;2022-09-09T01:44:07;16.90;92.40
38684;DHT22;24910;53.248;-6.134;2022-09-09T01:46:38;17.00;92.60
38684;DHT22;24910;53.248;-6.134;2022-09-09T01:49:14;16.90;92.40
38684;DHT22;24910;53.248;-6.134;2022-09-09T01:51:43;16.90;92.50
38684;DHT22;24910;53.248;-6.134;2022-09-09T01:54:15;16.90;92.50
38684;DHT22;24910;53.248;-6.134;2022-09-09T01:56:54;16.90;92.50
38684;DHT22;24910;53.248;-6.134;2022-09-09T01:59:38;16.90;92.50
38684;DHT22;24910;53.248;-6.134;2022-09-09T02:02:13;16.90;92.50
38684;DHT22;24910;53.248;-6.134;2022-09-09T02:04:56;16.90;92.60
38684;DHT22;24910;53.248;-6.134;2022-09-09T02:07:38;16.90;92.60
38684;DHT22;24910;53.248;-6.134;2022-09-09T02:10:20;17.00;92.60
38684;DHT22;24910;53.248;-6.134;2022-09-09T02:13:07;16.90;92.60
38684;DHT22;24910;53.248;-6.134;2022-09-09T02:15:42;16.90;92.60
38684;DHT22;24910;53.248;-6.134;2022-09-09T02:18:15;16.90;92.60
38684;DHT22;24910;53.248;-6.134;2022-09-09T02:20:48;16.90;92.60
38684;DHT22;24910;53.248;-6.134;2022-09-09T02:23:19;16.90;92.70
38684;DHT22;24910;53.248;-6.134;2022-09-09T02:25:54;16.80;92.60
38684;DHT22;24910;53.248;-6.134;2022-09-09T02:28:28;16.80;92.60
38684;DHT22;24910;53.248;-6.134;2022-09-09T02:30:59;16.80;92.70
38684;DHT22;24910;53.248;-6.134;2022-09-09T02:33:39;16.80;92.70
38684;DHT22;24910;53.248;-6.134;2022-09-09T02:36:11;16.80;92.70
38684;DHT22;24910;53.248;-6.134;2022-09-09T02:38:46;16.80;92.70
38684;DHT22;24910;53.248;-6.134;2022-09-09T02:41:22;16.80;92.80
38684;DHT22;24910;53.248;-6.134;2022-09-09T02:43:55;16.80;92.80
38684;DHT22;24910;53.248;-6.134;2022-09-09T02:46:35;16.80;92.80
38684;DHT22;24910;53.248;-6.134;2022-09-09T02:49:09;16.80;92.90
38684;DHT22;24910;53.248;-6.134;2022-09-09T02:51:46;16.80;92.90
38684;DHT22;24910;53.248;-6.134;2022-09-09T02:54:23;16.80;92.90
38684;DHT22;24910;53.248;-6.134;2022-09-09T02:56:55;16.80;92.90
38684;DHT22;24910;53.248;-6.134;2022-09-09T02:59:34;16.80;92.90
38684;DHT22;24910;53.248;-6.134;2022-09-09T03:02:04;16.80;92.90
38684;DHT22;24910;53.248;-6.134;2022-09-09T03:04:34;16.80;92.90
38684;DHT22;24910;53.248;-6.134;2022-09-09T03:07:03;16.80;92.90
38684;DHT22;24910;53.248;-6.134;2022-09-09T03:09:32;16.80;92.90
38684;DHT22;24910;53.248;-6.134;2022-09-09T03:12:02;16.80;92.90
38684;DHT22;24910;53.248;-6.134;2022-09-09T03:14:35;16.80;92.90
38684;DHT22;24910;53.248;-6.134;2022-09-09T03:17:06;16.80;93.00
38684;DHT22;24910;53.248;-6.134;2022-09-09T03:19:43;16.80;93.00
38684;DHT22;24910;53.248;-6.134;2022-09-09T03:22:13;16.80;93.00
38684;DHT22;24910;53.248;-6.134;2022-09-09T03:24:44;16.80;93.00
38684;DHT22;24910;53.248;-6.134;2022-09-09T03:27:14;16.80;93.00
38684;DHT22;24910;53.248;-6.134;2022-09-09T03:29:45;16.80;93.00
38684;DHT22;24910;53.248;-6.134;2022-09-09T03:32:19;16.80;93.00
38684;DHT22;24910;53.248;-6.134;2022-09-09T03:34:50;16.80;93.40
38684;DHT22;24910;53.248;-6.134;2022-09-09T03:37:20;16.80;93.00
38684;DHT22;24910;53.248;-6.134;2022-09-09T03:39:50;16.80;93.00
38684;DHT22;24910;53.248;-6.134;2022-09-09T03:42:21;16.90;93.00
38684;DHT22;24910;53.248;-6.134;2022-09-09T03:44:55;16.80;92.90
38684;DHT22;24910;53.248;-6.134;2022-09-09T03:47:26;16.80;92.90
38684;DHT22;24910;53.248;-6.134;2022-09-09T03:50:02;16.80;92.90
38684;DHT22;24910;53.248;-6.134;2022-09-09T03:52:34;16.80;92.90
38684;DHT22;24910;53.248;-6.134;2022-09-09T03:55:05;16.80;93.00
38684;DHT22;24910;53.248;-6.134;2022-09-09T03:57:35;16.80;93.00
38684;DHT22;24910;53.248;-6.134;2022-09-09T04:00:10;16.80;93.00
38684;DHT22;24910;53.248;-6.134;2022-09-09T04:02:51;16.80;93.00
38684;DHT22;24910;53.248;-6.134;2022-09-09T04:05:21;16.80;93.00
38684;DHT22;24910;53.248;-6.134;2022-09-09T04:07:50;16.80;93.00
38684;DHT22;24910;53.248;-6.134;2022-09-09T04:10:21;16.80;93.00
38684;DHT22;24910;53.248;-6.134;2022-09-09T04:12:51;16.70;93.10
38684;DHT22;24910;53.248;-6.134;2022-09-09T04:15:24;16.70;93.10
38684;DHT22;24910;53.248;-6.134;2022-09-09T04:17:53;16.70;93.10
38684;DHT22;24910;53.248;-6.134;2022-09-09T04:20:23;16.70;93.00
38684;DHT22;24910;53.248;-6.134;2022-09-09T04:22:52;16.70;93.10
38684;DHT22;24910;53.248;-6.134;2022-09-09T04:25:22;16.70;93.10
38684;DHT22;24910;53.248;-6.134;2022-09-09T04:27:53;16.70;93.20
38684;DHT22;24910;53.248;-6.134;2022-09-09T04:30:25;16.70;93.20
38684;DHT22;24910;53.248;-6.134;2022-09-09T04:32:55;16.70;93.20
38684;DHT22;24910;53.248;-6.134;2022-09-09T04:35:26;16.70;93.20
38684;DHT22;24910;53.248;-6.134;2022-09-09T04:37:56;16.70;93.20
38684;DHT22;24910;53.248;-6.134;2022-09-09T04:40:25;16.70;93.30
38684;DHT22;24910;53.248;-6.134;2022-09-09T04:42:55;16.70;93.30
38684;DHT22;24910;53.248;-6.134;2022-09-09T04:45:25;16.70;93.30
38684;DHT22;24910;53.248;-6.134;2022-09-09T04:47:55;16.70;93.40
38684;DHT22;24910;53.248;-6.134;2022-09-09T04:50:24;16.70;93.40
38684;DHT22;24910;53.248;-6.134;2022-09-09T04:53:00;16.70;93.40
38684;DHT22;24910;53.248;-6.134;2022-09-09T04:55:30;16.70;93.40
38684;DHT22;24910;53.248;-6.134;2022-09-09T04:58:03;16.70;93.40
38684;DHT22;24910;53.248;-6.134;2022-09-09T05:00:34;16.70;93.40
38684;DHT22;24910;53.248;-6.134;2022-09-09T05:03:07;16.70;93.40
38684;DHT22;24910;53.248;-6.134;2022-09-09T05:05:37;16.70;93.50
38684;DHT22;24910;53.248;-6.134;2022-09-09T05:08:07;16.70;93.50
38684;DHT22;24910;53.248;-6.134;2022-09-09T05:10:38;16.60;93.50
38684;DHT22;24910;53.248;-6.134;2022-09-09T05:13:11;16.70;93.50
38684;DHT22;24910;53.248;-6.134;2022-09-09T05:15:41;16.70;93.50
38684;DHT22;24910;53.248;-6.134;2022-09-09T05:18:11;16.70;93.50
38684;DHT22;24910;53.248;-6.134;2022-09-09T05:20:40;16.60;93.40
38684;DHT22;24910;53.248;-6.134;2022-09-09T05:23:10;16.70;93.50
38684;DHT22;24910;53.248;-6.134;2022-09-09T05:25:41;16.70;93.50
38684;DHT22;24910;53.248;-6.134;2022-09-09T05:28:10;16.70;93.50
38684;DHT22;24910;53.248;-6.134;2022-09-09T05:30:40;16.70;93.50
38684;DHT22;24910;53.248;-6.134;2022-09-09T05:33:10;16.70;93.50
38684;DHT22;24910;53.248;-6.134;2022-09-09T05:35:40;16.70;93.50
38684;DHT22;24910;53.248;-6.134;2022-09-09T05:38:09;16.70;93.50
38684;DHT22;24910;53.248;-6.134;2022-09-09T05:40:38;16.70;93.50
38684;DHT22;24910;53.248;-6.134;2022-09-09T05:43:12;16.60;93.50
38684;DHT22;24910;53.248;-6.134;2022-09-09T05:45:42;16.60;93.50
38684;DHT22;24910;53.248;-6.134;2022-09-09T05:48:11;16.60;93.50
38684;DHT22;24910;53.248;-6.134;2022-09-09T05:50:41;16.60;93.40
38684;DHT22;24910;53.248;-6.134;2022-09-09T05:53:10;16.60;93.40
38684;DHT22;24910;53.248;-6.134;2022-09-09T05:55:39;16.60;93.40
38684;DHT22;24910;53.248;-6.134;2022-09-09T05:58:08;16.60;93.50
38684;DHT22;24910;53.248;-6.134;2022-09-09T06:00:37;16.60;93.50
38684;DHT22;24910;53.248;-6.134;2022-09-09T06:03:10;16.60;93.50
38684;DHT22;24910;53.248;-6.134;2022-09-09T06:05:39;16.70;93.60
38684;DHT22;24910;53.248;-6.134;2022-09-09T06:08:11;16.70;93.50
38684;DHT22;24910;53.248;-6.134;2022-09-09T06:10:40;16.70;93.50
38684;DHT22;24910;53.248;-6.134;2022-09-09T06:13:09;16.70;93.50
38684;DHT22;24910;53.248;-6.134;2022-09-09T06:15:39;16.70;93.50
38684;DHT22;24910;53.248;-6.134;2022-09-09T06:18:10;16.70;93.50
38684;DHT22;24910;53.248;-6.134;2022-09-09T06:20:39;16.70;93.50
38684;DHT22;24910;53.248;-6.134;2022-09-09T06:23:08;16.70;93.50
38684;DHT22;24910;53.248;-6.134;2022-09-09T06:25:37;16.80;93.50
38684;DHT22;24910;53.248;-6.134;2022-09-09T06:28:09;16.80;93.50
38684;DHT22;24910;53.248;-6.134;2022-09-09T06:30:38;16.70;93.50
38684;DHT22;24910;53.248;-6.134;2022-09-09T06:33:08;16.80;93.50
38684;DHT22;24910;53.248;-6.134;2022-09-09T06:35:39;16.80;93.50
38684;DHT22;24910;53.248;-6.134;2022-09-09T06:38:08;16.80;93.50
38684;DHT22;24910;53.248;-6.134;2022-09-09T06:40:38;16.80;93.60
38684;DHT22;24910;53.248;-6.134;2022-09-09T06:43:08;16.80;93.60
38684;DHT22;24910;53.248;-6.134;2022-09-09T06:45:41;16.80;93.60
38684;DHT22;24910;53.248;-6.134;2022-09-09T06:48:10;16.80;93.60
38684;DHT22;24910;53.248;-6.134;2022-09-09T06:50:40;16.80;93.60
38684;DHT22;24910;53.248;-6.134;2022-09-09T06:53:10;16.80;93.60
38684;DHT22;24910;53.248;-6.134;2022-09-09T06:55:39;16.80;93.60
38684;DHT22;24910;53.248;-6.134;2022-09-09T06:58:10;16.80;93.60
38684;DHT22;24910;53.248;-6.134;2022-09-09T07:00:39;16.80;93.70
38684;DHT22;24910;53.248;-6.134;2022-09-09T07:03:10;16.80;93.70
38684;DHT22;24910;53.248;-6.134;2022-09-09T07:05:41;16.80;93.60
38684;DHT22;24910;53.248;-6.134;2022-09-09T07:08:12;16.80;93.60
38684;DHT22;24910;53.248;-6.134;2022-09-09T07:10:41;16.90;93.70
38684;DHT22;24910;53.248;-6.134;2022-09-09T07:13:11;16.90;93.70
38684;DHT22;24910;53.248;-6.134;2022-09-09T07:15:43;16.90;93.70
38684;DHT22;24910;53.248;-6.134;2022-09-09T07:18:12;16.90;93.70
38684;DHT22;24910;53.248;-6.134;2022-09-09T07:20:43;16.90;93.60
38684;DHT22;24910;53.248;-6.134;2022-09-09T07:23:21;16.90;93.60
38684;DHT22;24910;53.248;-6.134;2022-09-09T07:25:50;17.00;93.60
38684;DHT22;24910;53.248;-6.134;2022-09-09T07:28:20;17.00;93.60
38684;DHT22;24910;53.248;-6.134;2022-09-09T07:30:56;17.00;93.60
38684;DHT22;24910;53.248;-6.134;2022-09-09T07:33:26;17.00;93.60
38684;DHT22;24910;53.248;-6.134;2022-09-09T07:36:05;17.00;93.60
38684;DHT22;24910;53.248;-6.134;2022-09-09T07:38:38;17.00;93.60
38684;DHT22;24910;53.248;-6.134;2022-09-09T07:41:09;17.00;93.60
38684;DHT22;24910;53.248;-6.134;2022-09-09T07:43:41;17.10;93.70
38684;DHT22;24910;53.248;-6.134;2022-09-09T07:46:12;17.10;93.70
38684;DHT22;24910;53.248;-6.134;2022-09-09T07:48:44;17.10;93.80
38684;DHT22;24910;53.248;-6.134;2022-09-09T07:51:17;17.10;93.80
38684;DHT22;24910;53.248;-6.134;2022-09-09T07:53:51;17.20;93.80
38684;DHT22;24910;53.248;-6.134;2022-09-09T07:56:21;17.30;93.80
38684;DHT22;24910;53.248;-6.134;2022-09-09T07:58:53;17.30;93.80
38684;DHT22;24910;53.248;-6.134;2022-09-09T08:01:24;17.30;93.80
38684;DHT22;24910;53.248;-6.134;2022-09-09T08:03:55;17.40;93.80
38684;DHT22;24910;53.248;-6.134;2022-09-09T08:06:30;17.40;93.80
38684;DHT22;24910;53.248;-6.134;2022-09-09T08:09:00;17.50;93.80
38684;DHT22;24910;53.248;-6.134;2022-09-09T08:11:32;17.60;94.20
38684;DHT22;24910;53.248;-6.134;2022-09-09T08:14:07;17.70;93.80
38684;DHT22;24910;53.248;-6.134;2022-09-09T08:16:38;17.70;93.80
38684;DHT22;24910;53.248;-6.134;2022-09-09T08:19:08;17.80;93.70
38684;DHT22;24910;53.248;-6.134;2022-09-09T08:21:40;17.90;93.70
38684;DHT22;24910;53.248;-6.134;2022-09-09T08:24:11;17.90;93.60
38684;DHT22;24910;53.248;-6.134;2022-09-09T08:26:45;17.90;93.60
38684;DHT22;24910;53.248;-6.134;2022-09-09T08:29:15;18.00;93.60
38684;DHT22;24910;53.248;-6.134;2022-09-09T08:31:48;18.10;93.60
38684;DHT22;24910;53.248;-6.134;2022-09-09T08:34:18;18.20;93.50
38684;DHT22;24910;53.248;-6.134;2022-09-09T08:36:51;18.40;93.50
38684;DHT22;24910;53.248;-6.134;2022-09-09T08:39:25;18.60;93.40
38684;DHT22;24910;53.248;-6.134;2022-09-09T08:42:05;18.80;93.00
38684;DHT22;24910;53.248;-6.134;2022-09-09T08:44:49;18.90;92.80
38684;DHT22;24910;53.248;-6.134;2022-09-09T08:47:27;19.00;92.70
38684;DHT22;24910;53.248;-6.134;2022-09-09T08:50:16;19.10;92.50
38684;DHT22;24910;53.248;-6.134;2022-09-09T08:52:56;19.10;92.40
38684;DHT22;24910;53.248;-6.134;2022-09-09T08:55:35;19.10;92.20
38684;DHT22;24910;53.248;-6.134;2022-09-09T08:58:13;19.10;92.00
38684;DHT22;24910;53.248;-6.134;2022-09-09T09:04:07;19.20;92.00
38684;DHT22;24910;53.248;-6.134;2022-09-09T09:06:49;19.40;91.80
38684;DHT22;24910;53.248;-6.134;2022-09-09T09:09:33;19.60;91.60
38684;DHT22;24910;53.248;-6.134;2022-09-09T09:12:16;19.80;91.30
38684;DHT22;24910;53.248;-6.134;2022-09-09T09:14:47;19.80;91.10
38684;DHT22;24910;53.248;-6.134;2022-09-09T09:17:18;19.80;90.80
38684;DHT22;24910;53.248;-6.134;2022-09-09T09:19:49;19.60;90.70
38684;DHT22;24910;53.248;-6.134;2022-09-09T09:22:21;19.50;90.60
38684;DHT22;24910;53.248;-6.134;2022-09-09T09:25:02;19.30;90.40
38684;DHT22;24910;53.248;-6.134;2022-09-09T09:27:35;19.30;90.40
38684;DHT22;24910;53.248;-6.134;2022-09-09T09:30:15;19.10;90.20
38684;DHT22;24910;53.248;-6.134;2022-09-09T09:32:59;19.00;90.30
38684;DHT22;24910;53.248;-6.134;2022-09-09T09:35:31;19.00;90.30
38684;DHT22;24910;53.248;-6.134;2022-09-09T09:38:16;18.80;90.20
38684;DHT22;24910;53.248;-6.134;2022-09-09T09:41:07;18.80;90.30
38684;DHT22;24910;53.248;-6.134;2022-09-09T09:43:40;18.80;90.40
38684;DHT22;24910;53.248;-6.134;2022-09-09T09:46:20;18.80;90.40
38684;DHT22;24910;53.248;-6.134;2022-09-09T09:48:59;18.80;90.30
38684;DHT22;24910;53.248;-6.134;2022-09-09T09:51:31;18.80;90.30
38684;DHT22;24910;53.248;-6.134;2022-09-09T09:54:03;18.70;90.20
38684;DHT22;24910;53.248;-6.134;2022-09-09T09:56:36;18.70;90.30
38684;DHT22;24910;53.248;-6.134;2022-09-09T09:59:19;18.70;90.30
38684;DHT22;24910;53.248;-6.134;2022-09-09T10:02:12;18.70;90.30
38684;DHT22;24910;53.248;-6.134;2022-09-09T10:04:42;18.70;90.30
38684;DHT22;24910;53.248;-6.134;2022-09-09T10:07:17;18.80;90.30
38684;DHT22;24910;53.248;-6.134;2022-09-09T10:09:50;18.80;90.30
38684;DHT22;24910;53.248;-6.134;2022-09-09T10:12:30;18.80;90.10
38684;DHT22;24910;53.248;-6.134;2022-09-09T10:15:07;18.90;90.10
38684;DHT22;24910;53.248;-6.134;2022-09-09T10:17:56;19.00;90.10
38684;DHT22;24910;53.248;-6.134;2022-09-09T10:20:35;19.00;89.60
38684;DHT22;24910;53.248;-6.134;2022-09-09T10:23:18;19.00;89.40
38684;DHT22;24910;53.248;-6.134;2022-09-09T10:26:03;19.00;89.20
38684;DHT22;24910;53.248;-6.134;2022-09-09T10:28:58;19.00;89.10
38684;DHT22;24910;53.248;-6.134;2022-09-09T10:31:37;19.10;89.20
38684;DHT22;24910;53.248;-6.134;2022-09-09T10:34:18;19.20;88.90
38684;DHT22;24910;53.248;-6.134;2022-09-09T10:36:50;19.40;88.80
38684;DHT22;24910;53.248;-6.134;2022-09-09T10:39:32;19.50;88.50
38684;DHT22;24910;53.248;-6.134;2022-09-09T10:42:12;19.60;88.10
38684;DHT22;24910;53.248;-6.134;2022-09-09T10:44:57;19.70;87.90
38684;DHT22;24910;53.248;-6.134;2022-09-09T10:47:44;19.70;87.30
38684;DHT22;24910;53.248;-6.134;2022-09-09T10:50:42;19.80;87.00
38684;DHT22;24910;53.248;-6.134;2022-09-09T10:53:36;19.70;86.30
38684;DHT22;24910;53.248;-6.134;2022-09-09T10:56:08;19.60;86.40
38684;DHT22;24910;53.248;-6.134;2022-09-09T10:58:42;19.50;86.40
38684;DHT22;24910;53.248;-6.134;2022-09-09T11:01:18;19.40;86.30
38684;DHT22;24910;53.248;-6.134;2022-09-09T11:03:59;19.40;86.50
38684;DHT22;24910;53.248;-6.134;2022-09-09T11:06:35;19.30;86.60
38684;DHT22;24910;53.248;-6.134;2022-09-09T11:09:08;19.20;86.80
38684;DHT22;24910;53.248;-6.134;2022-09-09T11:11:47;19.10;86.80
38684;DHT22;24910;53.248;-6.134;2022-09-09T11:14:22;19.10;87.10
38684;DHT22;24910;53.248;-6.134;2022-09-09T11:16:58;19.00;87.40
38684;DHT22;24910;53.248;-6.134;2022-09-09T11:19:34;18.90;87.70
38684;DHT22;24910;53.248;-6.134;2022-09-09T11:22:05;18.90;88.00
38684;DHT22;24910;53.248;-6.134;2022-09-09T11:24:38;18.90;88.10
38684;DHT22;24910;53.248;-6.134;2022-09-09T11:27:13;19.00;88.20
38684;DHT22;24910;53.248;-6.134;2022-09-09T11:30:04;19.10;88.20
38684;DHT22;24910;53.248;-6.134;2022-09-09T11:32:54;19.10;88.10
38684;DHT22;24910;53.248;-6.134;2022-09-09T11:35:33;19.20;88.20
38684;DHT22;24910;53.248;-6.134;2022-09-09T11:38:17;19.20;88.10
38684;DHT22;24910;53.248;-6.134;2022-09-09T11:40:55;19.30;87.90
38684;DHT22;24910;53.248;-6.134;2022-09-09T11:43:30;19.40;87.80
38684;DHT22;24910;53.248;-6.134;2022-09-09T11:46:02;19.50;87.60
38684;DHT22;24910;53.248;-6.134;2022-09-09T11:48:36;19.60;87.20
38684;DHT22;24910;53.248;-6.134;2022-09-09T11:51:07;19.60;87.00
38684;DHT22;24910;53.248;-6.134;2022-09-09T11:53:50;19.70;86.50
38684;DHT22;24910;53.248;-6.134;2022-09-09T11:56:28;19.70;85.80
38684;DHT22;24910;53.248;-6.134;2022-09-09T11:59:00;19.70;85.30
38684;DHT22;24910;53.248;-6.134;2022-09-09T12:01:36;19.80;85.20
38684;DHT22;24910;53.248;-6.134;2022-09-09T12:07:29;19.90;84.70
38684;DHT22;24910;53.248;-6.134;2022-09-09T12:10:03;20.10;84.50
38684;DHT22;24910;53.248;-6.134;2022-09-09T12:12:33;20.10;84.20
38684;DHT22;24910;53.248;-6.134;2022-09-09T12:15:24;20.20;83.90
38684;DHT22;24910;53.248;-6.134;2022-09-09T12:17:56;20.20;83.30
38684;DHT22;24910;53.248;-6.134;2022-09-09T12:20:34;20.10;83.30
38684;DHT22;24910;53.248;-6.134;2022-09-09T12:23:29;20.10;83.10
38684;DHT22;24910;53.248;-6.134;2022-09-09T12:26:28;20.10;82.80
38684;DHT22;24910;53.248;-6.134;2022-09-09T12:29:09;20.00;82.50
38684;DHT22;24910;53.248;-6.134;2022-09-09T12:31:46;20.00;82.60
38684;DHT22;24910;53.248;-6.134;2022-09-09T12:34:17;20.00;82.50
38684;DHT22;24910;53.248;-6.134;2022-09-09T12:36:52;19.90;82.40
38684;DHT22;24910;53.248;-6.134;2022-09-09T12:39:31;19.80;82.60
38684;DHT22;24910;53.248;-6.134;2022-09-09T12:42:02;19.80;83.00
38684;DHT22;24910;53.248;-6.134;2022-09-09T12:44:31;19.70;83.10
38684;DHT22;24910;53.248;-6.134;2022-09-09T12:47:03;19.70;83.30
38684;DHT22;24910;53.248;-6.134;2022-09-09T12:49:34;19.60;83.60
38684;DHT22;24910;53.248;-6.134;2022-09-09T12:52:08;19.60;83.90
38684;DHT22;24910;53.248;-6.134;2022-09-09T12:54:45;19.60;84.10
38684;DHT22;24910;53.248;-6.134;2022-09-09T12:57:15;19.50;84.10
38684;DHT22;24910;53.248;-6.134;2022-09-09T12:59:44;19.50;84.40
38684;DHT22;24910;53.248;-6.134;2022-09-09T13:02:21;19.60;84.50
38684;DHT22;24910;53.248;-6.134;2022-09-09T13:04:51;19.70;84.40
38684;DHT22;24910;53.248;-6.134;2022-09-09T13:07:21;19.70;84.20
38684;DHT22;24910;53.248;-6.134;2022-09-09T13:09:53;19.70;84.20
38684;DHT22;24910;53.248;-6.134;2022-09-09T13:12:23;19.80;83.80
38684;DHT22;24910;53.248;-6.134;2022-09-09T13:14:54;19.80;83.80
38684;DHT22;24910;53.248;-6.134;2022-09-09T13:17:26;19.90;83.70
38684;DHT22;24910;53.248;-6.134;2022-09-09T13:19:57;19.90;83.40
38684;DHT22;24910;53.248;-6.134;2022-09-09T13:22:30;20.00;83.30
38684;DHT22;24910;53.248;-6.134;2022-09-09T13:25:04;19.90;82.90
38684;DHT22;24910;53.248;-6.134;2022-09-09T13:27:35;20.00;82.90
38684;DHT22;24910;53.248;-6.134;2022-09-09T13:30:23;20.10;82.70
38684;DHT22;24910;53.248;-6.134;2022-09-09T13:33:20;20.10;82.50
38684;DHT22;24910;53.248;-6.134;2022-09-09T13:35:52;20.10;82.50
38684;DHT22;24910;53.248;-6.134;2022-09-09T13:38:23;20.30;82.30
38684;DHT22;24910;53.248;-6.134;2022-09-09T13:41:00;20.30;81.90
38684;DHT22;24910;53.248;-6.134;2022-09-09T13:43:36;20.30;81.30
38684;DHT22;24910;53.248;-6.134;2022-09-09T13:46:24;20.20;80.90
38684;DHT22;24910;53.248;-6.134;2022-09-09T13:48:56;20.20;80.80
38684;DHT22;24910;53.248;-6.134;2022-09-09T13:51:32;20.10;80.80
38684;DHT22;24910;53.248;-6.134;2022-09-09T13:54:02;20.10;80.90
38684;DHT22;24910;53.248;-6.134;2022-09-09T13:56:34;20.00;81.10
38684;DHT22;24910;53.248;-6.134;2022-09-09T13:59:05;20.00;81.50
38684;DHT22;24910;53.248;-6.134;2022-09-09T14:01:35;20.00;82.00
38684;DHT22;24910;53.248;-6.134;2022-09-09T14:04:05;20.00;82.10
38684;DHT22;24910;53.248;-6.134;2022-09-09T14:06:34;19.90;82.20
38684;DHT22;24910;53.248;-6.134;2022-09-09T14:09:05;19.90;82.60
38684;DHT22;24910;53.248;-6.134;2022-09-09T14:11:35;19.80;83.10
38684;DHT22;24910;53.248;-6.134;2022-09-09T14:14:04;19.70;83.70
38684;DHT22;24910;53.248;-6.134;2022-09-09T14:16:33;19.70;84.30
38684;DHT22;24910;53.248;-6.134;2022-09-09T14:19:03;19.60;84.70
38684;DHT22;24910;53.248;-6.134;2022-09-09T14:21:32;19.50;85.10
38684;DHT22;24910;53.248;-6.134;2022-09-09T14:24:01;19.40;85.50
38684;DHT22;24910;53.248;-6.134;2022-09-09T14:26:30;19.30;85.80
38684;DHT22;24910;53.248;-6.134;2022-09-09T14:29:01;19.30;86.10
38684;DHT22;24910;53.248;-6.134;2022-09-09T14:31:30;19.30;86.40
38684;DHT22;24910;53.248;-6.134;2022-09-09T14:34:00;19.20;86.50
38684;DHT22;24910;53.248;-6.134;2022-09-09T14:36:29;19.20;86.70
38684;DHT22;24910;53.248;-6.134;2022-09-09T14:38:58;19.20;86.70
38684;DHT22;24910;53.248;-6.134;2022-09-09T14:41:27;19.20;86.80
38684;DHT22;24910;53.248;-6.134;2022-09-09T14:43:57;19.20;87.00
38684;DHT22;24910;53.248;-6.134;2022-09-09T14:46:28;19.20;87.30
38684;DHT22;24910;53.248;-6.134;2022-09-09T14:48:58;19.20;87.50
38684;DHT22;24910;53.248;-6.134;2022-09-09T14:51:28;19.30;87.70
38684;DHT22;24910;53.248;-6.134;2022-09-09T14:53:59;19.40;87.80
38684;DHT22;24910;53.248;-6.134;2022-09-09T14:56:31;19.40;87.80
38684;DHT22;24910;53.248;-6.134;2022-09-09T14:59:02;19.50;87.90
38684;DHT22;24910;53.248;-6.134;2022-09-09T15:01:32;19.60;87.90
38684;DHT22;24910;53.248;-6.134;2022-09-09T15:04:04;19.60;87.60
38684;DHT22;24910;53.248;-6.134;2022-09-09T15:06:35;19.60;87.40
38684;DHT22;24910;53.248;-6.134;2022-09-09T15:09:06;19.60;87.20
38684;DHT22;24910;53.248;-6.134;2022-09-09T15:11:37;19.70;87.00
38684;DHT22;24910;53.248;-6.134;2022-09-09T15:14:07;19.70;86.60
38684;DHT22;24910;53.248;-6.134;2022-09-09T15:16:38;19.90;86.60
38684;DHT22;24910;53.248;-6.134;2022-09-09T15:19:08;19.90;86.40
38684;DHT22;24910;53.248;-6.134;2022-09-09T15:21:37;20.00;86.20
38684;DHT22;24910;53.248;-6.134;2022-09-09T15:24:07;20.10;85.90
38684;DHT22;24910;53.248;-6.134;2022-09-09T15:26:37;20.20;85.70
38684;DHT22;24910;53.248;-6.134;2022-09-09T15:29:07;20.20;85.30
38684;DHT22;24910;53.248;-6.134;2022-09-09T15:31:38;20.10;84.60
38684;DHT22;24910;53.248;-6.134;2022-09-09T15:34:07;20.10;84.40
38684;DHT22;24910;53.248;-6.134;2022-09-09T15:36:38;20.10;83.90
38684;DHT22;24910;53.248;-6.134;2022-09-09T15:39:09;20.00;83.70
38684;DHT22;24910;53.248;-6.134;2022-09-09T15:41:40;20.00;83.20
38684;DHT22;24910;53.248;-6.134;2022-09-09T15:44:10;20.00;83.30
38684;DHT22;24910;53.248;-6.134;2022-09-09T15:46:42;20.00;83.30
38684;DHT22;24910;53.248;-6.134;2022-09-09T15:49:13;20.00;83.40
38684;DHT22;24910;53.248;-6.134;2022-09-09T15:51:43;20.00;83.30
38684;DHT22;24910;53.248;-6.134;2022-09-09T15:54:14;20.00;83.00
38684;DHT22;24910;53.248;-6.134;2022-09-09T15:56:45;19.90;82.80
38684;DHT22;24910;53.248;-6.134;2022-09-09T15:59:14;19.90;82.70
38684;DHT22;24910;53.248;-6.134;2022-09-09T16:01:45;19.80;82.40
38684;DHT22;24910;53.248;-6.134;2022-09-09T16:04:14;19.80;82.30